Huron Regional Airport
KHON : now visible

Airfield :











YOU CAN JOIN US ON...

 
LOGIN :

Register | Disclaimer

   EN    FR    IT 

 









Legend :    VFR   Marginal VFR   IFR   Intensive IFR   Very Intensive IFR
Visi :
Ceiling :
>= 8 km
>= 3000ft
5 to 8 km
1000 to 3000 ft
1500m to 5 km
500 to 1000 ft
800 to 1500m
200 to 500 ft
< 800m
< 200 ft
Symbols :   Thunderstorms  Fog  Heavy snow  Heavy precipitations  Wind > 20 kt






- Airport Elevation : 1289 ft
- IATA code : HON


KHON - Huron Regional

CURRENT METAR :
  • 181202Z AUTO 31030G40KT 1/2SM FZFG BLSN BKN011 OVC044 M16/M18 A3011 RMK AO2 PK WND 31040/1200 UPE1159 P0000 T11611183 $

EXPIRED METARs :
  • 181146Z AUTO 31029G40KT 1/2SM UP FZFG BKN011 OVC044 M16/M17 A3010 RMK AO2 PK WND 31042/1130 UPE1057B22SNB37E46 P0000 T11561172 $
  • 181129Z AUTO 31030G41KT 1/2SM UP FZFG BKN014 OVC050 M15/M17 A3009 RMK AO2 PK WND 31041/1124 UPE1057B22 P0000 T11501167 $
  • 181121Z AUTO 31023G33KT 1SM BLSN BR BKN014 OVC050 M15/M17 A3008 RMK AO2 PK WND 32036/1059 UPE1057 P0000 T11501167 $
  • 181106Z AUTO 32026G36KT 3/4SM BLSN BR SCT016 OVC050 M15/M17 A3007 RMK AO2 PK WND 32036/1059 UPE1057 P0000 T11501172 $
  • 181055Z AUTO 32028G37KT 1/2SM UP FZFG BKN013 OVC055 M15/M17 A3008 RMK AO2 PK WND 32048/1028 UPB28SNE28B30E41B44E55 SLP209 P0001 T11501167 $
  • 181028Z AUTO 32035G48KT 1/4SM UP FZFG BKN013 OVC060 M15/M17 A3006 RMK AO2 PK WND 32048/1028 UPB28SNE28 P0001 T11501167 $
  • 181005Z AUTO 32027G36KT 1/2SM -SN FZFG VV012 M15/M17 A3006 RMK AO2 PK WND 32036/1002 P0000 T11501167 $
  • 180955Z AUTO 32025G42KT 1/4SM -SN FZFG VV013 M16/M17 A3006 RMK AO2 PK WND 33045/0902 SLP203 P0001 T11561167 $

TAF KHON
Valid from the 18 at 12:00 until the 19 at 12:00 UTC


181122Z 1812/1912 31028G41KT 1SM BLSN SCT015
FM181500 32025G35KT 4SM BLSN SKC
FM182300 32017G27KT P6SM SKC
FM190000 32015G23KT P6SM SKC



MET'MAP, your aeronautical weather chart ! - Copyright ORBIFLY December 2007 - Disclaimer

ORBIFLY MET'MAP TEAM :

Programming & Development : Alexandra Zaïnal
Concept & original design : Baudouin d'Aumeries
Assistance for programming : Marc-Olivier Méhu
Technical & hardware support : Manuel Goepfert

Contact : metmap@orbifly.com




SOURCES & CREDITS :

   NOAA       Earth
Advisory